Portada
METAR-TAF:

METAR-TAF

Aeroports :

Hanoi, Vietnam

latitud: 21-01N, longitud: 105-48E, altitud: 6 m

Observació

L'informe es va fer fa 23 minuts, a les 01:30 UTC
Vent 4 kt del Nord/Nord-Est, variant entre Nord i Nord-Est
Temperatura 21°C
Humitat 73%
Pressió 1024 hPa
Visibilitat 10 km o més
Escasses núvols a una alçada de 2800 ft
Núvols disperses a una alçada de 3400 ft
Cel ennuvolat a una alçada de 4500 ft

METAR: VVNB 140130Z 03004KT 350V050 9999 FEW028 SCT034 BKN045 21/16 Q1024 NOSIG

Hora: 08:53 (01:53 UTC)

Pronòstic

L'informe es va fer fa 2 hores i 53 minuts, a les 23:00 UTC
Pronòstic vàlid del 14 a les 00 UTC al 14 a les 24 UTC
Vent 8 kt del Nord
Visibilitat 10 km o més
Núvols disperses a una alçada de 2500 ft

TAF: VVNB 132300Z 1400/1424 01008KT 9999 SCT025

Observacions i pronòstics meteorològics de més de 4000 aeroports (METAR i TAF).

Les estacions disponibles són els punts grocs i vermells al mapa.

Posi el ratolí al punt desitjat per veure el nom de l'estació.

Feu clic per veure les observacions i els pronòstics meteorològics.

Per canviar el mapa: feu clic els botons verds amb una creu de color negre per apropar; al botó verd amb un guió per allunyar la imatge; o en les fletxes verdes per a mapes adjacents.


METAR-TAF: